ADDS METAR Data INFO
IDs: Format: Raw Decoded Include TAF

Data at: 0713 UTC 19 Oct 2017

KRYY 190648Z AUTO 05003KT 10SM CLR 10/08 A3029 RMK AO2 SLP977 T01000083
KRYY 190548Z AUTO 00000KT 10SM CLR 11/08 A3029 RMK AO2 SLP978 T01060078 10167 20100 58005
KRYY 190448Z AUTO 08003KT 10SM CLR 11/08 A3030 RMK AO2 SLP980 T01110078
KRYY 190348Z AUTO 05003KT 10SM CLR 12/08 A3031 RMK AO2 SLP983 T01220083 402170067
KRYY 190248Z AUTO 05004KT 10SM CLR 13/08 A3031 RMK AO2 SLP983 T01280083 51009
KRYY 190148Z 00000KT 10SM CLR 13/09 A3030 RMK AO2 SLP981 T01330089
KRYY 190048Z 00000KT 10SM CLR 15/08 A3030 RMK AO2 SLP980 T01500083
KRYY 182348Z 08003KT 10SM CLR 17/07 A3028 RMK AO2 SLP975 T01670072 10217 20167 53004
KRYY 182248Z 10006KT 10SM CLR 19/06 A3027 RMK AO2 SLP970 T01890061
KRYY 182148Z 11004KT 10SM CLR 21/06 A3027 RMK AO2 SLP969 T02060061
KRYY 182048Z 11007KT 10SM CLR 21/06 A3027 RMK AO2 SLP970 T02110056 56018
KRYY 181948Z VRB05KT 10SM CLR 21/06 A3028 RMK AO2 SLP973 T02110056
KRYY 181848Z 10007KT 10SM CLR 21/06 A3030 RMK AO2 SLP979 T02060061
KRYY 181748Z VRB05KT 10SM CLR 19/06 A3032 RMK AO2 SLP988 T01940061 10194 20072 58014
KRYY 181648Z 12009KT 10SM CLR 18/06 A3035 RMK AO2 SLP997 T01830056
KRYY 181548Z 09011G16KT 10SM CLR 16/06 A3036 RMK AO2 SLP000 T01610056
KRYY 181448Z 11010KT 10SM CLR 15/06 A3037 RMK AO2 SLP002 T01500061 51010
KRYY 181348Z 10005KT 10SM CLR 13/07 A3036 RMK AO2 SLP001 T01280072
KRYY 181248Z 08003KT 10SM CLR 09/07 A3035 RMK AO2 SLP997 T00940072
KRYY 181148Z 08003KT 10SM CLR 08/06 A3034 RMK AO2 SLP992 T00780061 10094 20067 51012
KRYY 181048Z 00000KT 10SM CLR 08/07 A3033 RMK AO2 SLP989 T00780067
KRYY 180948Z AUTO 09003KT 10SM CLR 08/07 A3031 RMK AO2 SLP983 T00830067
KRYY 180848Z AUTO 00000KT 10SM CLR 08/06 A3030 RMK AO2 SLP979 T00780061 55002
KRYY 180748Z AUTO VRB04KT 10SM CLR 08/07 A3030 RMK AO2 SLP978 T00830072
KRYY 180648Z AUTO 00000KT 10SM CLR 08/07 A3031 RMK AO2 SLP982 T00780067 TSNO
KRYY 180548Z AUTO 00000KT 10SM CLR 08/07 A3031 RMK AO2 SLP982 T00830072 10144 20078 56001
KRYY 180448Z AUTO 00000KT 10SM CLR 11/07 A3031 RMK AO2 SLP983 T01060072
KRYY 180348Z AUTO 05003KT 10SM CLR 11/08 A3030 RMK AO2 SLP981 T01110083 402060067
KRYY 180248Z 05003KT 10SM CLR 12/08 A3031 RMK AO2 SLP983 T01170083 53017
KRYY 180148Z 00000KT 10SM CLR 12/08 A3028 RMK AO2 SLP975 T01170083
KRYY 180048Z 00000KT 10SM CLR 14/08 A3027 RMK AO2 SLP970 T01390083
KRYY 172348Z 00000KT 10SM CLR 14/08 A3026 RMK AO2 SLP967 T01440078 10206 20139 55001
KRYY 172248Z 11005KT 10SM CLR 18/04 A3025 RMK AO2 SLP964 T01780044
KRYY 172148Z 12007KT 10SM CLR 19/06 A3025 RMK AO2 SLP965 T01940056
KRYY 172048Z 10007KT 10SM CLR 20/06 A3026 RMK AO2 SLP968 T02000056 56018
KRYY 171948Z VRB04KT 10SM CLR 19/05 A3027 RMK AO2 SLP969 T01940050